Fair Seas — V7PD2 — position and weather

sailwx.info

Track history (hours):
 
Tides and Currents Weather Stations Pressure Air Temp Water Temp Dewpoint Dewpoint Depression Visibility Wind Speed Wind Dir Waves Ship Positions

Fair Seas

Last reported at 2015-Jul-29 02:29 UTC. Time now 2015-Jul-30 12:11 UTC.
Position N 29°49' E 032°31'.

Length 250 m; draft 13.8 m.

Type: Ship (hazmat cat D). MMSI: 538003211.

Date/timePositionNaut miles runAvg speedWind from/ knotsBaromVisibWave heightAir tempDewpointWater temp
2015-Jul-29 02:29N 29°49' E 032°31'0 0.0
2015-Jul-28 06:05N 29°49' E 032°31'0 0.0
2015-Jul-27 06:08N 29°49' E 032°31'0 0.0
2015-Jul-26 21:32N 29°49' E 032°31'98 5.4
2015-Jul-26 03:32N 31°26' E 032°20'1 0.7
2015-Jul-26 02:29N 31°26' E 032°19'0 0.0
2015-Jul-25 21:21N 31°26' E 032°19'0 0.0
2015-Jul-25 07:24N 31°26' E 032°19'0 0.0
2015-Jul-25 06:15N 31°26' E 032°19'0 0.0
2015-Jul-25 05:33N 31°26' E 032°19'0 0.0
2015-Jul-24 18:33N 31°26' E 032°19'0 0.0
2015-Jul-24 14:30N 31°26' E 032°19'0 0.0
2015-Jul-24 13:33N 31°26' E 032°19'0 0.0
2015-Jul-24 12:24N 31°26' E 032°19'0 0.0
2015-Jul-24 06:33N 31°26' E 032°19'0 0.0
2015-Jul-24 04:33N 31°26' E 032°19'0 0.0
2015-Jul-24 03:33N 31°26' E 032°19'0 0.0
2015-Jul-24 01:33N 31°26' E 032°19'11 5.5
2015-Jul-23 23:33N 31°34' E 032°10'1211.7
2015-Jul-23 22:33N 31°42' E 032°00'1212.1
2015-Jul-23 21:33N 31°50' E 031°49'1312.5
2015-Jul-23 20:33N 31°53' E 031°35'1312.7
2015-Jul-23 19:30N 31°57' E 031°20'1212.4
2015-Jul-23 18:33N 32°01' E 031°07'1312.2
2015-Jul-23 17:31N 32°05' E 030°52'2612.5
2015-Jul-23 15:27N 32°12' E 030°23'1212.9
2015-Jul-23 14:33N 32°16' E 030°10'17912.8
2015-Jul-23 00:32N 33°10' E 026°47'1212.5
2015-Jul-22 23:33N 33°13' E 026°33'4313.1
2015-Jul-22 20:15N 33°26' E 025°44'1113.4
2015-Jul-22 19:25N 33°30' E 025°31'44912.9
2015-Jul-21 08:33N 35°44' E 016°51'1312.6
2015-Jul-21 07:32N 35°48' E 016°36'7912.5
2015-Jul-21 01:12N 36°11' E 015°03'812.5
2015-Jul-21 00:33N 36°14' E 014°53'1312.7
2015-Jul-20 23:33N 36°18' E 014°38'1312.7
2015-Jul-20 22:33N 36°22' E 014°23'1312.9
2015-Jul-20 21:33N 36°25' E 014°07'1312.7
2015-Jul-20 20:33N 36°28' E 013°52'1312.9
2015-Jul-20 19:33N 36°31' E 013°37'1312.9
2015-Jul-20 18:33N 36°35' E 013°21'1312.8
2015-Jul-20 17:33N 36°38' E 013°06'1312.6
2015-Jul-20 16:33N 36°41' E 012°51'1212.4
2015-Jul-20 15:33N 36°45' E 012°36'1312.8
2015-Jul-20 14:33N 36°48' E 012°20'1312.9
2015-Jul-20 13:33N 36°54' E 012°06'1312.6
2015-Jul-20 12:33N 37°01' E 011°53'1312.6
2015-Jul-20 11:33N 37°08' E 011°40'1312.5
2015-Jul-20 10:33N 37°14' E 011°26'1312.7
2015-Jul-20 09:33N 37°21' E 011°12'1513.0
2015-Jul-20 08:23N 37°29' E 010°56'1113.2
2015-Jul-20 07:33N 37°34' E 010°44'2613.0
2015-Jul-20 05:33N 37°46' E 010°15'1413.1
2015-Jul-20 04:30N 37°47' E 009°57'1313.0
2015-Jul-20 03:32N 37°48' E 009°41'1313.5
2015-Jul-20 02:33N 37°48' E 009°25'1413.7
2015-Jul-20 01:34N 37°49' E 009°08'14012.7
2015-Jul-19 14:33N 37°32' E 006°12'2712.5
2015-Jul-19 12:25N 37°29' E 005°39'1313.1
2015-Jul-19 11:27N 37°27' E 005°23'8113.0
2015-Jul-19 05:13N 37°15' E 003°42'913.1
2015-Jul-19 04:33N 37°14' E 003°31'  
Track history (hours):
 
Tides and Currents Weather Stations Pressure Air Temp Water Temp Dewpoint Dewpoint Depression Visibility Wind Speed Wind Dir Waves Ship Positions

Fair Seas

Last reported at 2015-Jul-29 02:29 UTC. Time now 2015-Jul-30 12:11 UTC.
Position N 29°49' E 032°31'.

Length 250 m; draft 13.8 m.

Type: Ship (hazmat cat D). MMSI: 538003211.

Date/timePositionNaut miles runAvg speedWind from/ knotsBaromVisibWave heightAir tempDewpointWater temp
2015-Jul-29 02:29N 29°49' E 032°31'0 0.0
2015-Jul-28 06:05N 29°49' E 032°31'0 0.0
2015-Jul-27 06:08N 29°49' E 032°31'0 0.0
2015-Jul-26 21:32N 29°49' E 032°31'98 5.4
2015-Jul-26 03:32N 31°26' E 032°20'1 0.7
2015-Jul-26 02:29N 31°26' E 032°19'0 0.0
2015-Jul-25 21:21N 31°26' E 032°19'0 0.0
2015-Jul-25 07:24N 31°26' E 032°19'0 0.0
2015-Jul-25 06:15N 31°26' E 032°19'0 0.0
2015-Jul-25 05:33N 31°26' E 032°19'0 0.0
2015-Jul-24 18:33N 31°26' E 032°19'0 0.0
2015-Jul-24 14:30N 31°26' E 032°19'0 0.0
2015-Jul-24 13:33N 31°26' E 032°19'0 0.0
2015-Jul-24 12:24N 31°26' E 032°19'0 0.0
2015-Jul-24 06:33N 31°26' E 032°19'0 0.0
2015-Jul-24 04:33N 31°26' E 032°19'0 0.0
2015-Jul-24 03:33N 31°26' E 032°19'0 0.0
2015-Jul-24 01:33N 31°26' E 032°19'11 5.5
2015-Jul-23 23:33N 31°34' E 032°10'1211.7
2015-Jul-23 22:33N 31°42' E 032°00'1212.1
2015-Jul-23 21:33N 31°50' E 031°49'1312.5
2015-Jul-23 20:33N 31°53' E 031°35'1312.7
2015-Jul-23 19:30N 31°57' E 031°20'1212.4
2015-Jul-23 18:33N 32°01' E 031°07'1312.2
2015-Jul-23 17:31N 32°05' E 030°52'2612.5
2015-Jul-23 15:27N 32°12' E 030°23'1212.9
2015-Jul-23 14:33N 32°16' E 030°10'17912.8
2015-Jul-23 00:32N 33°10' E 026°47'1212.5
2015-Jul-22 23:33N 33°13' E 026°33'4313.1
2015-Jul-22 20:15N 33°26' E 025°44'1113.4
2015-Jul-22 19:25N 33°30' E 025°31'44912.9
2015-Jul-21 08:33N 35°44' E 016°51'1312.6
2015-Jul-21 07:32N 35°48' E 016°36'7912.5
2015-Jul-21 01:12N 36°11' E 015°03'812.5
2015-Jul-21 00:33N 36°14' E 014°53'1312.7
2015-Jul-20 23:33N 36°18' E 014°38'1312.7
2015-Jul-20 22:33N 36°22' E 014°23'1312.9
2015-Jul-20 21:33N 36°25' E 014°07'1312.7
2015-Jul-20 20:33N 36°28' E 013°52'1312.9
2015-Jul-20 19:33N 36°31' E 013°37'1312.9
2015-Jul-20 18:33N 36°35' E 013°21'1312.8
2015-Jul-20 17:33N 36°38' E 013°06'1312.6
2015-Jul-20 16:33N 36°41' E 012°51'1212.4
2015-Jul-20 15:33N 36°45' E 012°36'1312.8
2015-Jul-20 14:33N 36°48' E 012°20'1312.9
2015-Jul-20 13:33N 36°54' E 012°06'1312.6
2015-Jul-20 12:33N 37°01' E 011°53'1312.6
2015-Jul-20 11:33N 37°08' E 011°40'1312.5
2015-Jul-20 10:33N 37°14' E 011°26'1312.7
2015-Jul-20 09:33N 37°21' E 011°12'1513.0
2015-Jul-20 08:23N 37°29' E 010°56'1113.2
2015-Jul-20 07:33N 37°34' E 010°44'2613.0
2015-Jul-20 05:33N 37°46' E 010°15'1413.1
2015-Jul-20 04:30N 37°47' E 009°57'1313.0
2015-Jul-20 03:32N 37°48' E 009°41'1313.5
2015-Jul-20 02:33N 37°48' E 009°25'1413.7
2015-Jul-20 01:34N 37°49' E 009°08'14012.7
2015-Jul-19 14:33N 37°32' E 006°12'2712.5
2015-Jul-19 12:25N 37°29' E 005°39'1313.1
2015-Jul-19 11:27N 37°27' E 005°23'8113.0
2015-Jul-19 05:13N 37°15' E 003°42'913.1
2015-Jul-19 04:33N 37°14' E 003°31'  

Dump ship's entire track history